sensor_id;sensor_type;location;lat;lon;timestamp;pressure;altitude;pressure_sealevel;temperature;humidity
29163;BME280;20331;53.144;8.208;2023-04-21T00:08:52;102011.53;;;9.68;79.88
29163;BME280;20331;53.144;8.208;2023-04-21T00:19:13;102003.88;;;9.56;81.14
29163;BME280;20331;53.144;8.208;2023-04-21T00:29:35;101997.00;;;9.55;80.25
29163;BME280;20331;53.144;8.208;2023-04-21T00:39:57;101986.63;;;9.59;80.98
29163;BME280;20331;53.144;8.208;2023-04-21T00:50:18;101979.69;;;9.64;80.41
29163;BME280;20331;53.144;8.208;2023-04-21T01:00:40;101966.75;;;9.66;80.71
29163;BME280;20331;53.144;8.208;2023-04-21T01:11:10;101957.28;;;9.66;80.79
29163;BME280;20331;53.144;8.208;2023-04-21T01:21:38;101951.22;;;9.69;80.16
29163;BME280;20331;53.144;8.208;2023-04-21T01:32:04;101956.44;;;9.66;80.31
29163;BME280;20331;53.144;8.208;2023-04-21T01:42:27;101942.66;;;9.64;79.47
29163;BME280;20331;53.144;8.208;2023-04-21T01:52:49;101939.25;;;9.59;80.02
29163;BME280;20331;53.144;8.208;2023-04-21T02:03:10;101938.44;;;9.51;80.27
29163;BME280;20331;53.144;8.208;2023-04-21T02:13:32;101928.13;;;9.49;79.70
29163;BME280;20331;53.144;8.208;2023-04-21T02:23:53;101925.59;;;9.42;79.06
29163;BME280;20331;53.144;8.208;2023-04-21T02:34:15;101923.06;;;9.37;80.08
29163;BME280;20331;53.144;8.208;2023-04-21T02:44:36;101929.13;;;9.33;79.96
29163;BME280;20331;53.144;8.208;2023-04-21T02:54:58;101918.81;;;9.32;83.11
29163;BME280;20331;53.144;8.208;2023-04-21T03:05:19;101923.13;;;9.30;79.85
29163;BME280;20331;53.144;8.208;2023-04-21T03:15:41;101924.88;;;9.28;80.39
29163;BME280;20331;53.144;8.208;2023-04-21T03:26:09;101924.91;;;9.25;79.86
29163;BME280;20331;53.144;8.208;2023-04-21T03:36:30;101922.31;;;9.22;80.76
29163;BME280;20331;53.144;8.208;2023-04-21T03:46:52;101936.09;;;9.21;80.49
29163;BME280;20331;53.144;8.208;2023-04-21T03:57:14;101934.38;;;9.20;81.25
29163;BME280;20331;53.144;8.208;2023-04-21T04:07:36;101934.41;;;9.17;80.76
29163;BME280;20331;53.144;8.208;2023-04-21T04:17:58;101941.28;;;9.16;80.08
29163;BME280;20331;53.144;8.208;2023-04-21T04:28:20;101936.13;;;9.14;80.60
29163;BME280;20331;53.144;8.208;2023-04-21T04:38:42;101937.88;;;9.16;80.10
29163;BME280;20331;53.144;8.208;2023-04-21T04:49:06;101942.16;;;9.15;81.16
29163;BME280;20331;53.144;8.208;2023-04-21T04:59:27;101941.31;;;9.14;81.50
29163;BME280;20331;53.144;8.208;2023-04-21T05:09:50;101941.28;;;9.18;81.25
29163;BME280;20331;53.144;8.208;2023-04-21T05:20:11;101942.13;;;9.23;79.77
29163;BME280;20331;53.144;8.208;2023-04-21T05:30:33;101935.22;;;9.25;79.90
29163;BME280;20331;53.144;8.208;2023-04-21T05:40:54;101944.63;;;9.32;79.85
29163;BME280;20331;53.144;8.208;2023-04-21T05:51:16;101946.31;;;9.39;80.77
29163;BME280;20331;53.144;8.208;2023-04-21T06:01:37;101929.00;;;9.50;80.13
29163;BME280;20331;53.144;8.208;2023-04-21T06:11:59;101930.59;;;9.66;79.91
29163;BME280;20331;53.144;8.208;2023-04-21T06:22:24;101919.19;;;9.86;80.08
29163;BME280;20331;53.144;8.208;2023-04-21T06:32:46;101912.88;;;10.14;79.16
29163;BME280;20331;53.144;8.208;2023-04-21T06:43:08;101915.91;;;10.54;78.04
29163;BME280;20331;53.144;8.208;2023-04-21T06:53:30;101894.69;;;10.90;78.76
29163;BME280;20331;53.144;8.208;2023-04-21T07:03:51;101884.66;;;11.26;74.99
29163;BME280;20331;53.144;8.208;2023-04-21T07:14:13;101866.03;;;11.54;79.58
29163;BME280;20331;53.144;8.208;2023-04-21T07:24:35;101858.59;;;11.85;76.21
29163;BME280;20331;53.144;8.208;2023-04-21T07:34:57;101854.59;;;12.13;74.92
29163;BME280;20331;53.144;8.208;2023-04-21T07:45:19;101851.50;;;12.37;74.89
29163;BME280;20331;53.144;8.208;2023-04-21T07:55:40;101849.16;;;12.65;73.44
29163;BME280;20331;53.144;8.208;2023-04-21T08:06:02;101853.81;;;12.87;72.26
29163;BME280;20331;53.144;8.208;2023-04-21T08:16:23;101838.50;;;13.13;72.02
29163;BME280;20331;53.144;8.208;2023-04-21T08:26:45;101827.50;;;13.38;72.70
29163;BME280;20331;53.144;8.208;2023-04-21T08:37:07;101821.34;;;13.74;71.37
29163;BME280;20331;53.144;8.208;2023-04-21T08:47:28;101830.97;;;14.01;70.49
29163;BME280;20331;53.144;8.208;2023-04-21T08:57:50;101822.53;;;14.24;72.82
29163;BME280;20331;53.144;8.208;2023-04-21T09:08:12;101815.41;;;14.59;70.23
29163;BME280;20331;53.144;8.208;2023-04-21T09:18:36;101804.19;;;14.85;69.12
29163;BME280;20331;53.144;8.208;2023-04-21T09:29:00;101808.25;;;15.18;68.35
29163;BME280;20331;53.144;8.208;2023-04-21T09:39:30;101798.81;;;15.42;67.47
29163;BME280;20331;53.144;8.208;2023-04-21T09:50:10;101783.88;;;15.70;66.06
29163;BME280;20331;53.144;8.208;2023-04-21T10:00:33;101760.03;;;16.03;66.04
29163;BME280;20331;53.144;8.208;2023-04-21T10:10:59;101754.59;;;16.31;65.93
29163;BME280;20331;53.144;8.208;2023-04-21T10:21:21;101734.09;;;16.65;65.22
29163;BME280;20331;53.144;8.208;2023-04-21T10:31:50;101728.25;;;17.00;64.52
29163;BME280;20331;53.144;8.208;2023-04-21T10:52:37;101691.88;;;17.55;61.75
29163;BME280;20331;53.144;8.208;2023-04-21T11:03:00;101682.47;;;17.88;63.01
29163;BME280;20331;53.144;8.208;2023-04-21T11:13:23;101665.34;;;18.35;61.11
29163;BME280;20331;53.144;8.208;2023-04-21T11:34:10;101632.66;;;19.11;57.80
29163;BME280;20331;53.144;8.208;2023-04-21T11:44:39;101606.78;;;19.53;55.59
29163;BME280;20331;53.144;8.208;2023-04-21T11:55:02;101599.25;;;19.78;57.65
29163;BME280;20331;53.144;8.208;2023-04-21T12:05:24;101591.59;;;20.20;54.00
29163;BME280;20331;53.144;8.208;2023-04-21T12:15:45;101586.03;;;19.48;56.88
29163;BME280;20331;53.144;8.208;2023-04-21T12:26:07;101554.69;;;19.61;56.53
29163;BME280;20331;53.144;8.208;2023-04-21T12:36:29;101557.81;;;19.83;56.09
29163;BME280;20331;53.144;8.208;2023-04-21T12:46:50;101536.75;;;20.58;54.09
29163;BME280;20331;53.144;8.208;2023-04-21T12:57:12;101516.34;;;20.89;51.72
29163;BME280;20331;53.144;8.208;2023-04-21T13:07:33;101502.94;;;21.08;49.92
29163;BME280;20331;53.144;8.208;2023-04-21T13:17:55;101491.28;;;21.53;55.06
29163;BME280;20331;53.144;8.208;2023-04-21T13:28:17;101470.66;;;21.86;57.97
29163;BME280;20331;53.144;8.208;2023-04-21T13:38:39;101464.88;;;22.06;54.42
29163;BME280;20331;53.144;8.208;2023-04-21T13:49:01;101459.50;;;22.20;53.70
29163;BME280;20331;53.144;8.208;2023-04-21T13:59:22;101431.03;;;22.00;54.14
29163;BME280;20331;53.144;8.208;2023-04-21T14:09:44;101428.25;;;21.89;50.78
29163;BME280;20331;53.144;8.208;2023-04-21T14:20:06;101381.66;;;22.27;54.91
29163;BME280;20331;53.144;8.208;2023-04-21T14:30:29;101387.66;;;22.29;53.12
29163;BME280;20331;53.144;8.208;2023-04-21T14:40:51;101382.63;;;22.26;53.24
29163;BME280;20331;53.144;8.208;2023-04-21T14:51:15;101380.19;;;22.23;49.81
29163;BME280;20331;53.144;8.208;2023-04-21T15:01:37;101353.19;;;22.07;52.48
29163;BME280;20331;53.144;8.208;2023-04-21T15:11:58;101350.88;;;22.15;53.27
29163;BME280;20331;53.144;8.208;2023-04-21T15:22:20;101331.88;;;22.23;49.77
29163;BME280;20331;53.144;8.208;2023-04-21T15:32:41;101325.53;;;22.25;53.33
29163;BME280;20331;53.144;8.208;2023-04-21T15:43:03;101312.56;;;22.22;50.88
29163;BME280;20331;53.144;8.208;2023-04-21T15:53:24;101298.50;;;22.34;47.88
29163;BME280;20331;53.144;8.208;2023-04-21T16:03:46;101286.50;;;22.30;49.85
29163;BME280;20331;53.144;8.208;2023-04-21T16:14:09;101276.00;;;22.18;51.93
29163;BME280;20331;53.144;8.208;2023-04-21T16:24:31;101268.19;;;22.04;53.65
29163;BME280;20331;53.144;8.208;2023-04-21T16:34:52;101254.72;;;21.95;50.01
29163;BME280;20331;53.144;8.208;2023-04-21T16:45:14;101248.19;;;21.88;51.44
29163;BME280;20331;53.144;8.208;2023-04-21T16:55:35;101241.00;;;21.78;51.96
29163;BME280;20331;53.144;8.208;2023-04-21T17:05:57;101247.97;;;21.54;52.53
29163;BME280;20331;53.144;8.208;2023-04-21T17:16:18;101240.78;;;21.31;50.37
29163;BME280;20331;53.144;8.208;2023-04-21T17:26:39;101226.66;;;21.07;51.33
29163;BME280;20331;53.144;8.208;2023-04-21T17:37:02;101226.34;;;20.84;52.24
29163;BME280;20331;53.144;8.208;2023-04-21T17:47:24;101223.13;;;20.54;52.60
29163;BME280;20331;53.144;8.208;2023-04-21T17:57:46;101228.84;;;20.20;55.25
29163;BME280;20331;53.144;8.208;2023-04-21T18:08:07;101227.16;;;19.91;54.91
29163;BME280;20331;53.144;8.208;2023-04-21T18:18:29;101226.44;;;19.61;56.13
29163;BME280;20331;53.144;8.208;2023-04-21T18:28:50;101232.94;;;19.26;52.66
29163;BME280;20331;53.144;8.208;2023-04-21T18:39:11;101232.75;;;18.99;54.04
29163;BME280;20331;53.144;8.208;2023-04-21T18:49:33;101233.59;;;18.70;56.53
29163;BME280;20331;53.144;8.208;2023-04-21T18:59:54;101240.16;;;18.47;56.22
29163;BME280;20331;53.144;8.208;2023-04-21T19:10:16;101239.03;;;18.20;56.73
29163;BME280;20331;53.144;8.208;2023-04-21T19:20:37;101235.94;;;17.96;54.98
29163;BME280;20331;53.144;8.208;2023-04-21T19:30:59;101238.63;;;17.79;57.52
29163;BME280;20331;53.144;8.208;2023-04-21T19:41:20;101248.16;;;17.65;56.85
29163;BME280;20331;53.144;8.208;2023-04-21T19:51:41;101258.47;;;17.51;56.95
29163;BME280;20331;53.144;8.208;2023-04-21T20:02:03;101244.84;;;17.27;55.49
29163;BME280;20331;53.144;8.208;2023-04-21T20:12:25;101247.22;;;17.15;57.81
29163;BME280;20331;53.144;8.208;2023-04-21T20:22:46;101235.09;;;16.96;58.07
29163;BME280;20331;53.144;8.208;2023-04-21T20:33:08;101233.88;;;16.86;56.74
29163;BME280;20331;53.144;8.208;2023-04-21T20:43:30;101239.84;;;16.71;57.81
29163;BME280;20331;53.144;8.208;2023-04-21T20:53:53;101226.56;;;16.57;57.87
29163;BME280;20331;53.144;8.208;2023-04-21T21:04:14;101228.84;;;16.46;57.67
29163;BME280;20331;53.144;8.208;2023-04-21T21:14:36;101224.09;;;16.36;58.28
29163;BME280;20331;53.144;8.208;2023-04-21T21:24:58;101227.81;;;16.13;53.97
29163;BME280;20331;53.144;8.208;2023-04-21T21:35:19;101222.88;;;16.07;57.53
29163;BME280;20331;53.144;8.208;2023-04-21T21:45:41;101219.13;;;15.94;58.70
29163;BME280;20331;53.144;8.208;2023-04-21T21:56:02;101212.66;;;15.84;58.71
29163;BME280;20331;53.144;8.208;2023-04-21T22:06:24;101206.13;;;15.74;55.91
29163;BME280;20331;53.144;8.208;2023-04-21T22:16:47;101211.00;;;15.63;58.64
29163;BME280;20331;53.144;8.208;2023-04-21T22:27:08;101206.44;;;15.48;59.25
29163;BME280;20331;53.144;8.208;2023-04-21T22:37:30;101205.91;;;15.40;59.09
29163;BME280;20331;53.144;8.208;2023-04-21T22:47:51;101196.00;;;15.28;59.62
29163;BME280;20331;53.144;8.208;2023-04-21T22:58:12;101196.94;;;15.06;56.67
29163;BME280;20331;53.144;8.208;2023-04-21T23:08:35;101187.63;;;15.01;59.77
29163;BME280;20331;53.144;8.208;2023-04-21T23:18:57;101182.34;;;14.82;60.67
29163;BME280;20331;53.144;8.208;2023-04-21T23:29:18;101170.47;;;14.75;60.52
29163;BME280;20331;53.144;8.208;2023-04-21T23:39:40;101157.75;;;14.68;59.99
29163;BME280;20331;53.144;8.208;2023-04-21T23:50:01;101169.28;;;14.62;60.44
